sensor_id;sensor_type;location;lat;lon;timestamp;P1;durP1;ratioP1;P2;durP2;ratioP2
46633;SDS011;32362;49.986;8.026;2022-08-01T00:09:06;2.05;;;0.70;;
46633;SDS011;32362;49.986;8.026;2022-08-01T00:35:47;0.85;;;0.60;;
46633;SDS011;32362;49.986;8.026;2022-08-01T01:02:27;1.37;;;0.70;;
46633;SDS011;32362;49.986;8.026;2022-08-01T01:29:25;2.13;;;1.63;;
46633;SDS011;32362;49.986;8.026;2022-08-01T01:56:20;1.00;;;0.60;;
46633;SDS011;32362;49.986;8.026;2022-08-01T02:23:06;1.20;;;0.57;;
46633;SDS011;32362;49.986;8.026;2022-08-01T02:49:51;1.98;;;0.80;;
46633;SDS011;32362;49.986;8.026;2022-08-01T03:16:34;1.77;;;0.70;;
46633;SDS011;32362;49.986;8.026;2022-08-01T03:54:05;3.60;;;0.75;;
46633;SDS011;32362;49.986;8.026;2022-08-01T04:20:48;0.70;;;0.70;;
46633;SDS011;32362;49.986;8.026;2022-08-01T04:47:29;1.27;;;0.98;;
46633;SDS011;32362;49.986;8.026;2022-08-01T05:14:11;1.63;;;1.00;;
46633;SDS011;32362;49.986;8.026;2022-08-01T05:40:52;2.35;;;1.02;;
46633;SDS011;32362;49.986;8.026;2022-08-01T06:07:33;2.05;;;0.80;;
46633;SDS011;32362;49.986;8.026;2022-08-01T06:34:14;0.90;;;0.90;;
46633;SDS011;32362;49.986;8.026;2022-08-01T07:00:55;0.80;;;0.75;;
46633;SDS011;32362;49.986;8.026;2022-08-01T07:27:36;1.15;;;1.00;;
46633;SDS011;32362;49.986;8.026;2022-08-01T07:54:17;4.45;;;1.60;;
46633;SDS011;32362;49.986;8.026;2022-08-01T08:20:58;1.35;;;1.20;;
46633;SDS011;32362;49.986;8.026;2022-08-01T08:47:39;1.65;;;1.55;;
46633;SDS011;32362;49.986;8.026;2022-08-01T09:14:22;1.92;;;1.70;;
46633;SDS011;32362;49.986;8.026;2022-08-01T09:41:05;2.03;;;1.80;;
46633;SDS011;32362;49.986;8.026;2022-08-01T10:07:57;2.33;;;2.03;;
46633;SDS011;32362;49.986;8.026;2022-08-01T10:34:38;2.00;;;1.60;;
46633;SDS011;32362;49.986;8.026;2022-08-01T11:01:23;2.75;;;1.70;;
46633;SDS011;32362;49.986;8.026;2022-08-01T11:54:56;1.92;;;1.27;;
46633;SDS011;32362;49.986;8.026;2022-08-01T12:21:38;5.78;;;0.98;;
46633;SDS011;32362;49.986;8.026;2022-08-01T12:48:19;0.88;;;0.70;;
46633;SDS011;32362;49.986;8.026;2022-08-01T13:15:15;0.85;;;0.85;;
46633;SDS011;32362;49.986;8.026;2022-08-01T13:41:56;3.22;;;1.20;;
46633;SDS011;32362;49.986;8.026;2022-08-01T14:08:37;1.35;;;1.00;;
46633;SDS011;32362;49.986;8.026;2022-08-01T14:35:18;3.00;;;1.80;;
46633;SDS011;32362;49.986;8.026;2022-08-01T15:01:59;8.80;;;2.70;;
46633;SDS011;32362;49.986;8.026;2022-08-01T15:28:40;2.40;;;1.45;;
46633;SDS011;32362;49.986;8.026;2022-08-01T15:55:21;3.30;;;1.23;;
46633;SDS011;32362;49.986;8.026;2022-08-01T16:22:02;1.52;;;1.15;;
46633;SDS011;32362;49.986;8.026;2022-08-01T16:48:44;5.93;;;2.10;;
46633;SDS011;32362;49.986;8.026;2022-08-01T17:15:25;1.85;;;1.70;;
46633;SDS011;32362;49.986;8.026;2022-08-01T17:42:07;1.60;;;1.50;;
46633;SDS011;32362;49.986;8.026;2022-08-01T18:08:48;4.57;;;2.10;;
46633;SDS011;32362;49.986;8.026;2022-08-01T18:35:29;1.90;;;1.80;;
46633;SDS011;32362;49.986;8.026;2022-08-01T19:02:12;5.80;;;2.05;;
46633;SDS011;32362;49.986;8.026;2022-08-01T19:28:57;2.20;;;2.00;;
46633;SDS011;32362;49.986;8.026;2022-08-01T19:55:40;2.92;;;1.85;;
46633;SDS011;32362;49.986;8.026;2022-08-01T20:22:23;2.38;;;1.70;;
46633;SDS011;32362;49.986;8.026;2022-08-01T20:49:05;3.00;;;1.80;;
46633;SDS011;32362;49.986;8.026;2022-08-01T21:15:52;1.80;;;1.60;;
46633;SDS011;32362;49.986;8.026;2022-08-01T21:42:37;3.00;;;2.30;;
46633;SDS011;32362;49.986;8.026;2022-08-01T22:09:18;4.18;;;2.10;;
46633;SDS011;32362;49.986;8.026;2022-08-01T22:35:59;2.75;;;2.38;;
46633;SDS011;32362;49.986;8.026;2022-08-01T23:02:45;3.17;;;2.08;;
46633;SDS011;32362;49.986;8.026;2022-08-01T23:29:27;7.20;;;4.50;;
46633;SDS011;32362;49.986;8.026;2022-08-01T23:56:08;4.80;;;2.47;;
